Leo Star I — ELXC6 — position and weather

sailwx.info

Track history (hours):
 
Tides and Currents Weather Stations Pressure Air Temp Water Temp Dewpoint Dewpoint Depression Visibility Wind Speed Wind Dir Waves Ship Positions

Leo Star I

Last reported at 2017-Sep-28 17:38 UTC. Time now 2017-Dec-13 15:12 UTC.
Position S 33°42' E 018°11'.
Warning: this ship's position is months out of date.

Length 157 m; draft 9 m.

Type: Cargo ship. MMSI: 636015065.

Date/timePositionNaut miles runAvg speedWind from/ knotsBaromVisibWave heightAir tempDewpointWater temp
2017-Sep-28 17:38S 33°42' E 018°11'212.7
2017-Sep-28 17:29S 33°43' E 018°13'612.8
2017-Sep-28 17:00S 33°48' E 018°17'510.9
2017-Sep-28 16:30S 33°51' E 018°23'4 8.0
2017-Sep-28 16:00S 33°54' E 018°26'1 1.7
2017-Sep-28 15:30S 33°55' E 018°26'0 0.0
2017-Sep-28 15:00S 33°55' E 018°26'0 0.0
2017-Sep-28 14:30S 33°55' E 018°26'0 0.0
2017-Sep-28 13:59S 33°55' E 018°26'0 0.0
2017-Sep-28 13:30S 33°55' E 018°26'0 0.0
2017-Sep-28 13:00S 33°55' E 018°26'0 0.0
2017-Sep-28 12:30S 33°55' E 018°26'0 0.0
2017-Sep-28 12:00S 33°55' E 018°26'0 0.0
2017-Sep-28 11:30S 33°55' E 018°26'0 0.0
2017-Sep-28 11:00S 33°55' E 018°26'0 0.0
2017-Sep-28 10:30S 33°55' E 018°26'0 0.0
2017-Sep-28 10:00S 33°55' E 018°26'0 0.0
2017-Sep-28 09:30S 33°55' E 018°26'0 0.0
2017-Sep-28 09:00S 33°55' E 018°26'0 0.0
2017-Sep-28 08:29S 33°55' E 018°26'0 0.0
2017-Sep-28 08:00S 33°55' E 018°26'0 0.0
2017-Sep-28 07:30S 33°55' E 018°26'0 0.0
2017-Sep-28 07:00S 33°55' E 018°26'0 0.0
2017-Sep-28 06:30S 33°55' E 018°26'0 0.0
2017-Sep-28 06:00S 33°55' E 018°26'0 0.0
2017-Sep-28 05:30S 33°55' E 018°26'0 0.0
2017-Sep-28 05:00S 33°55' E 018°26'0 0.0
2017-Sep-28 04:30S 33°55' E 018°26'0 0.0
2017-Sep-28 04:00S 33°55' E 018°26'0 0.0
2017-Sep-28 03:30S 33°55' E 018°26'0 0.0
2017-Sep-28 03:00S 33°55' E 018°26'0 0.0
2017-Sep-28 02:30S 33°55' E 018°26'0 0.0
2017-Sep-28 02:00S 33°55' E 018°26'0 0.0
2017-Sep-28 01:30S 33°55' E 018°26'0 0.0
2017-Sep-28 01:00S 33°55' E 018°26'0 0.0
2017-Sep-28 00:30S 33°55' E 018°26'0 0.0
2017-Sep-28 00:00S 33°55' E 018°26'0 0.0
2017-Sep-27 23:30S 33°55' E 018°26'0 0.0
2017-Sep-27 23:00S 33°55' E 018°26'0 0.0
2017-Sep-27 22:30S 33°55' E 018°26'0 0.0
2017-Sep-27 22:00S 33°55' E 018°26'0 0.0
2017-Sep-27 21:30S 33°55' E 018°26'0 0.0
2017-Sep-27 21:00S 33°55' E 018°26'0 0.0
2017-Sep-27 20:30S 33°55' E 018°26'0 0.0
2017-Sep-27 20:00S 33°55' E 018°26'0 0.0
2017-Sep-27 19:30S 33°55' E 018°26'0 0.0
2017-Sep-27 19:00S 33°55' E 018°26'0 0.0
2017-Sep-27 18:30S 33°55' E 018°26'0 0.0
2017-Sep-27 18:00S 33°55' E 018°26'0 0.0
2017-Sep-27 17:30S 33°55' E 018°26'0 0.0
2017-Sep-27 17:00S 33°55' E 018°26'0 0.0
2017-Sep-27 16:30S 33°55' E 018°26'0 0.0
2017-Sep-27 16:00S 33°55' E 018°26'0 0.1
2017-Sep-27 15:30S 33°55' E 018°26'2 4.3
2017-Sep-27 15:00S 33°53' E 018°26'2 4.2
2017-Sep-27 14:30S 33°52' E 018°24'2 4.2
2017-Sep-27 14:00S 33°52' E 018°21'3 5.5
2017-Sep-27 13:30S 33°51' E 018°18'3 5.3
2017-Sep-27 12:57S 33°51' E 018°15'1 1.5
2017-Sep-27 12:30S 33°51' E 018°15'1 1.5
2017-Sep-27 12:00S 33°52' E 018°15'1 1.4
2017-Sep-27 11:30S 33°53' E 018°14'1 2.4
2017-Sep-27 11:00S 33°54' E 018°14'4 7.2
2017-Sep-27 10:30S 33°57' E 018°13'  
Track history (hours):
 
Tides and Currents Weather Stations Pressure Air Temp Water Temp Dewpoint Dewpoint Depression Visibility Wind Speed Wind Dir Waves Ship Positions

Leo Star I

Last reported at 2017-Sep-28 17:38 UTC. Time now 2017-Dec-13 15:12 UTC.
Position S 33°42' E 018°11'.
Warning: this ship's position is months out of date.

Length 157 m; draft 9 m.

Type: Cargo ship. MMSI: 636015065.

Date/timePositionNaut miles runAvg speedWind from/ knotsBaromVisibWave heightAir tempDewpointWater temp
2017-Sep-28 17:38S 33°42' E 018°11'212.7
2017-Sep-28 17:29S 33°43' E 018°13'612.8
2017-Sep-28 17:00S 33°48' E 018°17'510.9
2017-Sep-28 16:30S 33°51' E 018°23'4 8.0
2017-Sep-28 16:00S 33°54' E 018°26'1 1.7
2017-Sep-28 15:30S 33°55' E 018°26'0 0.0
2017-Sep-28 15:00S 33°55' E 018°26'0 0.0
2017-Sep-28 14:30S 33°55' E 018°26'0 0.0
2017-Sep-28 13:59S 33°55' E 018°26'0 0.0
2017-Sep-28 13:30S 33°55' E 018°26'0 0.0
2017-Sep-28 13:00S 33°55' E 018°26'0 0.0
2017-Sep-28 12:30S 33°55' E 018°26'0 0.0
2017-Sep-28 12:00S 33°55' E 018°26'0 0.0
2017-Sep-28 11:30S 33°55' E 018°26'0 0.0
2017-Sep-28 11:00S 33°55' E 018°26'0 0.0
2017-Sep-28 10:30S 33°55' E 018°26'0 0.0
2017-Sep-28 10:00S 33°55' E 018°26'0 0.0
2017-Sep-28 09:30S 33°55' E 018°26'0 0.0
2017-Sep-28 09:00S 33°55' E 018°26'0 0.0
2017-Sep-28 08:29S 33°55' E 018°26'0 0.0
2017-Sep-28 08:00S 33°55' E 018°26'0 0.0
2017-Sep-28 07:30S 33°55' E 018°26'0 0.0
2017-Sep-28 07:00S 33°55' E 018°26'0 0.0
2017-Sep-28 06:30S 33°55' E 018°26'0 0.0
2017-Sep-28 06:00S 33°55' E 018°26'0 0.0
2017-Sep-28 05:30S 33°55' E 018°26'0 0.0
2017-Sep-28 05:00S 33°55' E 018°26'0 0.0
2017-Sep-28 04:30S 33°55' E 018°26'0 0.0
2017-Sep-28 04:00S 33°55' E 018°26'0 0.0
2017-Sep-28 03:30S 33°55' E 018°26'0 0.0
2017-Sep-28 03:00S 33°55' E 018°26'0 0.0
2017-Sep-28 02:30S 33°55' E 018°26'0 0.0
2017-Sep-28 02:00S 33°55' E 018°26'0 0.0
2017-Sep-28 01:30S 33°55' E 018°26'0 0.0
2017-Sep-28 01:00S 33°55' E 018°26'0 0.0
2017-Sep-28 00:30S 33°55' E 018°26'0 0.0
2017-Sep-28 00:00S 33°55' E 018°26'0 0.0
2017-Sep-27 23:30S 33°55' E 018°26'0 0.0
2017-Sep-27 23:00S 33°55' E 018°26'0 0.0
2017-Sep-27 22:30S 33°55' E 018°26'0 0.0
2017-Sep-27 22:00S 33°55' E 018°26'0 0.0
2017-Sep-27 21:30S 33°55' E 018°26'0 0.0
2017-Sep-27 21:00S 33°55' E 018°26'0 0.0
2017-Sep-27 20:30S 33°55' E 018°26'0 0.0
2017-Sep-27 20:00S 33°55' E 018°26'0 0.0
2017-Sep-27 19:30S 33°55' E 018°26'0 0.0
2017-Sep-27 19:00S 33°55' E 018°26'0 0.0
2017-Sep-27 18:30S 33°55' E 018°26'0 0.0
2017-Sep-27 18:00S 33°55' E 018°26'0 0.0
2017-Sep-27 17:30S 33°55' E 018°26'0 0.0
2017-Sep-27 17:00S 33°55' E 018°26'0 0.0
2017-Sep-27 16:30S 33°55' E 018°26'0 0.0
2017-Sep-27 16:00S 33°55' E 018°26'0 0.1
2017-Sep-27 15:30S 33°55' E 018°26'2 4.3
2017-Sep-27 15:00S 33°53' E 018°26'2 4.2
2017-Sep-27 14:30S 33°52' E 018°24'2 4.2
2017-Sep-27 14:00S 33°52' E 018°21'3 5.5
2017-Sep-27 13:30S 33°51' E 018°18'3 5.3
2017-Sep-27 12:57S 33°51' E 018°15'1 1.5
2017-Sep-27 12:30S 33°51' E 018°15'1 1.5
2017-Sep-27 12:00S 33°52' E 018°15'1 1.4
2017-Sep-27 11:30S 33°53' E 018°14'1 2.4
2017-Sep-27 11:00S 33°54' E 018°14'4 7.2
2017-Sep-27 10:30S 33°57' E 018°13'  

Dump ship's entire track history